sensor_id;sensor_type;location;lat;lon;timestamp;P1;durP1;ratioP1;P2;durP2;ratioP2
58466;SDS011;44255;49.244;7.726;2023-02-18T04:31:05;23.75;;;15.57;;
58466;SDS011;44255;49.244;7.726;2023-02-18T04:33:30;24.67;;;15.13;;
58466;SDS011;44255;49.244;7.726;2023-02-18T04:35:55;22.43;;;14.00;;
58466;SDS011;44255;49.244;7.726;2023-02-18T04:38:21;24.20;;;14.47;;
58466;SDS011;44255;49.244;7.726;2023-02-18T04:40:47;24.10;;;14.55;;
58466;SDS011;44255;49.244;7.726;2023-02-18T04:43:12;26.20;;;15.63;;
58466;SDS011;44255;49.244;7.726;2023-02-18T04:45:37;23.73;;;15.10;;
58466;SDS011;44255;49.244;7.726;2023-02-18T04:48:03;23.67;;;14.77;;
58466;SDS011;44255;49.244;7.726;2023-02-18T04:50:28;22.58;;;15.38;;
58466;SDS011;44255;49.244;7.726;2023-02-18T04:52:53;22.97;;;14.57;;
58466;SDS011;44255;49.244;7.726;2023-02-18T04:55:19;22.17;;;14.40;;
58466;SDS011;44255;49.244;7.726;2023-02-18T04:57:44;26.33;;;15.50;;
58466;SDS011;44255;49.244;7.726;2023-02-18T05:00:09;24.67;;;14.50;;
58466;SDS011;44255;49.244;7.726;2023-02-18T05:02:39;24.02;;;15.25;;
58466;SDS011;44255;49.244;7.726;2023-02-18T05:05:04;21.97;;;14.03;;
58466;SDS011;44255;49.244;7.726;2023-02-18T05:07:29;23.98;;;14.85;;
58466;SDS011;44255;49.244;7.726;2023-02-18T05:09:55;21.00;;;13.40;;
58466;SDS011;44255;49.244;7.726;2023-02-18T05:12:20;26.37;;;15.33;;
58466;SDS011;44255;49.244;7.726;2023-02-18T05:14:45;25.30;;;16.30;;
58466;SDS011;44255;49.244;7.726;2023-02-18T05:17:11;23.63;;;14.32;;
58466;SDS011;44255;49.244;7.726;2023-02-18T05:19:36;23.10;;;13.97;;
58466;SDS011;44255;49.244;7.726;2023-02-18T05:22:01;23.07;;;13.70;;
58466;SDS011;44255;49.244;7.726;2023-02-18T05:24:26;23.93;;;14.93;;
58466;SDS011;44255;49.244;7.726;2023-02-18T05:26:52;22.50;;;13.97;;
58466;SDS011;44255;49.244;7.726;2023-02-18T05:29:17;25.13;;;15.57;;
58466;SDS011;44255;49.244;7.726;2023-02-18T05:31:42;23.47;;;14.43;;
58466;SDS011;44255;49.244;7.726;2023-02-18T05:34:07;22.70;;;14.90;;
58466;SDS011;44255;49.244;7.726;2023-02-18T05:36:33;23.07;;;14.30;;
58466;SDS011;44255;49.244;7.726;2023-02-18T05:38:58;24.90;;;15.18;;
58466;SDS011;44255;49.244;7.726;2023-02-18T05:41:23;22.50;;;14.40;;
58466;SDS011;44255;49.244;7.726;2023-02-18T05:43:49;23.53;;;14.40;;
58466;SDS011;44255;49.244;7.726;2023-02-18T05:46:32;23.17;;;15.07;;
58466;SDS011;44255;49.244;7.726;2023-02-18T05:48:58;24.17;;;16.17;;
58466;SDS011;44255;49.244;7.726;2023-02-18T05:51:23;22.77;;;14.23;;
58466;SDS011;44255;49.244;7.726;2023-02-18T05:53:48;23.27;;;14.43;;
58466;SDS011;44255;49.244;7.726;2023-02-18T05:56:13;23.60;;;14.77;;
58466;SDS011;44255;49.244;7.726;2023-02-18T05:58:39;23.40;;;14.27;;
58466;SDS011;44255;49.244;7.726;2023-02-18T06:01:04;22.70;;;14.20;;
58466;SDS011;44255;49.244;7.726;2023-02-18T06:03:29;22.95;;;14.20;;
58466;SDS011;44255;49.244;7.726;2023-02-18T06:05:55;19.67;;;13.33;;
58466;SDS011;44255;49.244;7.726;2023-02-18T06:08:20;18.77;;;12.03;;
58466;SDS011;44255;49.244;7.726;2023-02-18T06:10:45;19.83;;;13.67;;
58466;SDS011;44255;49.244;7.726;2023-02-18T06:13:11;18.75;;;12.35;;
58466;SDS011;44255;49.244;7.726;2023-02-18T06:15:36;22.23;;;13.60;;
58466;SDS011;44255;49.244;7.726;2023-02-18T06:18:02;18.90;;;12.32;;
58466;SDS011;44255;49.244;7.726;2023-02-18T06:20:27;21.40;;;12.75;;
58466;SDS011;44255;49.244;7.726;2023-02-18T06:22:53;21.80;;;13.40;;
58466;SDS011;44255;49.244;7.726;2023-02-18T06:25:18;18.80;;;12.33;;
58466;SDS011;44255;49.244;7.726;2023-02-18T06:27:43;18.90;;;12.40;;
58466;SDS011;44255;49.244;7.726;2023-02-18T06:30:08;20.67;;;13.07;;
58466;SDS011;44255;49.244;7.726;2023-02-18T06:32:34;20.88;;;12.98;;
58466;SDS011;44255;49.244;7.726;2023-02-18T06:34:59;19.65;;;12.73;;
58466;SDS011;44255;49.244;7.726;2023-02-18T06:37:25;18.30;;;12.23;;
58466;SDS011;44255;49.244;7.726;2023-02-18T06:39:50;18.33;;;12.93;;
58466;SDS011;44255;49.244;7.726;2023-02-18T06:42:15;20.70;;;12.57;;
58466;SDS011;44255;49.244;7.726;2023-02-18T06:44:40;20.50;;;13.33;;
58466;SDS011;44255;49.244;7.726;2023-02-18T06:47:06;25.30;;;14.20;;
58466;SDS011;44255;49.244;7.726;2023-02-18T06:49:31;22.43;;;13.40;;
58466;SDS011;44255;49.244;7.726;2023-02-18T06:51:56;21.13;;;12.75;;
58466;SDS011;44255;49.244;7.726;2023-02-18T06:54:22;22.97;;;14.50;;
58466;SDS011;44255;49.244;7.726;2023-02-18T06:56:47;19.57;;;12.20;;
58466;SDS011;44255;49.244;7.726;2023-02-18T06:59:12;22.80;;;14.17;;
58466;SDS011;44255;49.244;7.726;2023-02-18T07:01:38;24.17;;;13.60;;
58466;SDS011;44255;49.244;7.726;2023-02-18T07:04:03;23.77;;;13.23;;
58466;SDS011;44255;49.244;7.726;2023-02-18T07:06:28;18.53;;;11.93;;
58466;SDS011;44255;49.244;7.726;2023-02-18T07:08:54;17.48;;;11.88;;
58466;SDS011;44255;49.244;7.726;2023-02-18T07:11:19;17.67;;;11.63;;
58466;SDS011;44255;49.244;7.726;2023-02-18T07:13:44;21.77;;;13.27;;
58466;SDS011;44255;49.244;7.726;2023-02-18T07:16:10;19.67;;;11.83;;
58466;SDS011;44255;49.244;7.726;2023-02-18T07:18:35;18.42;;;11.02;;
58466;SDS011;44255;49.244;7.726;2023-02-18T07:21:01;17.10;;;11.27;;
58466;SDS011;44255;49.244;7.726;2023-02-18T07:23:26;18.17;;;10.93;;
58466;SDS011;44255;49.244;7.726;2023-02-18T07:25:51;15.80;;;11.20;;
58466;SDS011;44255;49.244;7.726;2023-02-18T07:28:16;17.00;;;10.53;;
58466;SDS011;44255;49.244;7.726;2023-02-18T07:30:42;18.33;;;10.60;;
58466;SDS011;44255;49.244;7.726;2023-02-18T07:33:07;18.47;;;11.40;;
58466;SDS011;44255;49.244;7.726;2023-02-18T07:35:32;19.23;;;12.77;;
58466;SDS011;44255;49.244;7.726;2023-02-18T07:37:57;17.10;;;11.40;;
58466;SDS011;44255;49.244;7.726;2023-02-18T07:40:23;16.03;;;11.17;;
58466;SDS011;44255;49.244;7.726;2023-02-18T07:42:48;18.90;;;11.53;;
58466;SDS011;44255;49.244;7.726;2023-02-18T07:45:13;15.07;;;10.38;;
58466;SDS011;44255;49.244;7.726;2023-02-18T07:47:39;15.65;;;10.68;;
58466;SDS011;44255;49.244;7.726;2023-02-18T07:50:06;15.00;;;11.00;;
58466;SDS011;44255;49.244;7.726;2023-02-18T07:52:32;16.83;;;11.13;;
58466;SDS011;44255;49.244;7.726;2023-02-18T07:54:57;15.97;;;10.93;;
58466;SDS011;44255;49.244;7.726;2023-02-18T07:57:23;16.30;;;10.90;;
58466;SDS011;44255;49.244;7.726;2023-02-18T07:59:48;15.73;;;9.43;;
58466;SDS011;44255;49.244;7.726;2023-02-18T08:02:14;14.73;;;10.53;;
58466;SDS011;44255;49.244;7.726;2023-02-18T08:04:42;15.40;;;10.50;;
58466;SDS011;44255;49.244;7.726;2023-02-18T08:07:10;16.50;;;10.17;;
58466;SDS011;44255;49.244;7.726;2023-02-18T08:09:37;15.60;;;9.55;;
58466;SDS011;44255;49.244;7.726;2023-02-18T08:12:02;13.77;;;9.57;;
58466;SDS011;44255;49.244;7.726;2023-02-18T08:14:28;13.55;;;8.85;;
58466;SDS011;44255;49.244;7.726;2023-02-18T08:16:53;16.33;;;9.50;;
58466;SDS011;44255;49.244;7.726;2023-02-18T08:19:18;15.43;;;9.93;;
58466;SDS011;44255;49.244;7.726;2023-02-18T08:21:44;12.77;;;10.13;;
58466;SDS011;44255;49.244;7.726;2023-02-18T08:24:10;12.80;;;9.25;;
58466;SDS011;44255;49.244;7.726;2023-02-18T08:26:35;12.03;;;8.23;;
58466;SDS011;44255;49.244;7.726;2023-02-18T08:29:00;13.73;;;8.93;;
58466;SDS011;44255;49.244;7.726;2023-02-18T08:31:27;11.53;;;8.20;;
58466;SDS011;44255;49.244;7.726;2023-02-18T08:33:54;13.30;;;9.43;;
58466;SDS011;44255;49.244;7.726;2023-02-18T08:36:20;12.45;;;8.18;;
58466;SDS011;44255;49.244;7.726;2023-02-18T08:38:46;12.93;;;8.40;;
58466;SDS011;44255;49.244;7.726;2023-02-18T08:41:11;12.67;;;8.63;;
58466;SDS011;44255;49.244;7.726;2023-02-18T08:43:38;12.75;;;8.15;;
58466;SDS011;44255;49.244;7.726;2023-02-18T08:46:04;18.15;;;10.32;;
58466;SDS011;44255;49.244;7.726;2023-02-18T08:48:29;15.73;;;8.68;;
58466;SDS011;44255;49.244;7.726;2023-02-18T08:50:55;12.97;;;8.57;;
58466;SDS011;44255;49.244;7.726;2023-02-18T08:53:20;14.03;;;8.80;;
58466;SDS011;44255;49.244;7.726;2023-02-18T08:55:45;14.05;;;9.15;;
58466;SDS011;44255;49.244;7.726;2023-02-18T08:58:11;12.67;;;8.20;;
58466;SDS011;44255;49.244;7.726;2023-02-18T09:00:37;10.82;;;7.13;;
58466;SDS011;44255;49.244;7.726;2023-02-18T09:03:03;14.20;;;8.90;;
58466;SDS011;44255;49.244;7.726;2023-02-18T09:05:29;11.50;;;7.67;;
58466;SDS011;44255;49.244;7.726;2023-02-18T09:07:54;14.27;;;9.50;;
58466;SDS011;44255;49.244;7.726;2023-02-18T09:10:19;12.67;;;8.70;;
58466;SDS011;44255;49.244;7.726;2023-02-18T09:12:45;11.53;;;7.73;;
58466;SDS011;44255;49.244;7.726;2023-02-18T09:15:10;14.33;;;8.47;;
58466;SDS011;44255;49.244;7.726;2023-02-18T09:17:35;11.53;;;7.77;;
58466;SDS011;44255;49.244;7.726;2023-02-18T09:20:00;13.97;;;8.03;;
58466;SDS011;44255;49.244;7.726;2023-02-18T09:22:26;16.90;;;8.88;;
58466;SDS011;44255;49.244;7.726;2023-02-18T09:24:51;13.47;;;7.37;;
58466;SDS011;44255;49.244;7.726;2023-02-18T09:27:16;8.60;;;6.60;;
58466;SDS011;44255;49.244;7.726;2023-02-18T09:29:41;10.63;;;7.87;;
58466;SDS011;44255;49.244;7.726;2023-02-18T09:32:07;9.37;;;6.40;;
58466;SDS011;44255;49.244;7.726;2023-02-18T09:34:34;9.07;;;6.78;;
58466;SDS011;44255;49.244;7.726;2023-02-18T09:37:00;8.82;;;6.88;;
58466;SDS011;44255;49.244;7.726;2023-02-18T09:39:25;9.10;;;5.50;;
58466;SDS011;44255;49.244;7.726;2023-02-18T09:42:01;7.57;;;6.03;;
58466;SDS011;44255;49.244;7.726;2023-02-18T09:47:02;7.28;;;5.35;;
58466;SDS011;44255;49.244;7.726;2023-02-18T09:49:31;9.38;;;5.85;;
58466;SDS011;44255;49.244;7.726;2023-02-18T09:52:06;10.05;;;5.88;;
58466;SDS011;44255;49.244;7.726;2023-02-18T09:54:36;8.10;;;5.30;;
58466;SDS011;44255;49.244;7.726;2023-02-18T09:57:02;7.47;;;5.55;;
58466;SDS011;44255;49.244;7.726;2023-02-18T09:59:30;7.82;;;5.38;;
58466;SDS011;44255;49.244;7.726;2023-02-18T10:01:55;7.85;;;5.68;;
58466;SDS011;44255;49.244;7.726;2023-02-18T10:04:30;8.02;;;5.53;;
58466;SDS011;44255;49.244;7.726;2023-02-18T10:07:01;9.88;;;6.22;;
58466;SDS011;44255;49.244;7.726;2023-02-18T10:09:28;9.60;;;6.15;;
58466;SDS011;44255;49.244;7.726;2023-02-18T10:12:06;8.02;;;5.53;;
58466;SDS011;44255;49.244;7.726;2023-02-18T10:14:39;9.07;;;5.88;;
58466;SDS011;44255;49.244;7.726;2023-02-18T10:17:04;7.03;;;5.07;;
58466;SDS011;44255;49.244;7.726;2023-02-18T10:19:35;6.78;;;4.57;;
58466;SDS011;44255;49.244;7.726;2023-02-18T10:22:05;6.55;;;4.72;;
58466;SDS011;44255;49.244;7.726;2023-02-18T10:24:34;11.95;;;5.80;;
58466;SDS011;44255;49.244;7.726;2023-02-18T10:27:04;9.77;;;6.15;;
58466;SDS011;44255;49.244;7.726;2023-02-18T10:29:31;8.23;;;5.18;;
58466;SDS011;44255;49.244;7.726;2023-02-18T10:34:47;6.93;;;4.53;;
58466;SDS011;44255;49.244;7.726;2023-02-18T10:48:33;6.80;;;5.03;;
58466;SDS011;44255;49.244;7.726;2023-02-18T10:51:21;9.13;;;6.13;;
58466;SDS011;44255;49.244;7.726;2023-02-18T10:53:50;9.80;;;7.18;;
58466;SDS011;44255;49.244;7.726;2023-02-18T10:59:05;13.23;;;8.77;;
58466;SDS011;44255;49.244;7.726;2023-02-18T11:01:35;16.23;;;10.18;;
58466;SDS011;44255;49.244;7.726;2023-02-18T11:04:05;16.33;;;11.03;;
58466;SDS011;44255;49.244;7.726;2023-02-18T11:06:49;16.23;;;10.13;;
58466;SDS011;44255;49.244;7.726;2023-02-18T11:09:38;15.93;;;10.90;;
58466;SDS011;44255;49.244;7.726;2023-02-18T11:12:16;18.48;;;11.40;;
58466;SDS011;44255;49.244;7.726;2023-02-18T11:14:48;15.90;;;11.07;;
58466;SDS011;44255;49.244;7.726;2023-02-18T11:17:30;15.75;;;11.25;;
58466;SDS011;44255;49.244;7.726;2023-02-18T11:19:57;18.75;;;11.25;;
58466;SDS011;44255;49.244;7.726;2023-02-18T11:24:55;15.70;;;10.02;;
58466;SDS011;44255;49.244;7.726;2023-02-18T11:27:23;16.55;;;11.20;;
58466;SDS011;44255;49.244;7.726;2023-02-18T11:29:53;14.95;;;9.57;;
58466;SDS011;44255;49.244;7.726;2023-02-18T11:32:25;15.68;;;10.48;;
58466;SDS011;44255;49.244;7.726;2023-02-18T11:34:52;16.55;;;11.13;;
58466;SDS011;44255;49.244;7.726;2023-02-18T11:37:18;16.30;;;10.33;;
58466;SDS011;44255;49.244;7.726;2023-02-18T11:39:45;14.05;;;9.15;;
58466;SDS011;44255;49.244;7.726;2023-02-18T11:42:14;13.95;;;9.68;;
58466;SDS011;44255;49.244;7.726;2023-02-18T11:44:52;15.32;;;10.10;;
58466;SDS011;44255;49.244;7.726;2023-02-18T11:47:30;15.20;;;8.98;;
58466;SDS011;44255;49.244;7.726;2023-02-18T11:49:59;12.43;;;8.77;;
58466;SDS011;44255;49.244;7.726;2023-02-18T11:52:32;12.43;;;8.50;;
58466;SDS011;44255;49.244;7.726;2023-02-18T11:55:04;11.18;;;8.23;;
58466;SDS011;44255;49.244;7.726;2023-02-18T11:57:36;13.13;;;8.68;;
58466;SDS011;44255;49.244;7.726;2023-02-18T12:00:15;10.60;;;8.30;;
58466;SDS011;44255;49.244;7.726;2023-02-18T12:02:45;12.15;;;8.38;;
58466;SDS011;44255;49.244;7.726;2023-02-18T12:05:20;9.65;;;7.45;;
58466;SDS011;44255;49.244;7.726;2023-02-18T12:08:04;12.15;;;7.30;;
58466;SDS011;44255;49.244;7.726;2023-02-18T12:10:41;9.40;;;7.47;;
58466;SDS011;44255;49.244;7.726;2023-02-18T12:15:56;10.43;;;7.85;;
58466;SDS011;44255;49.244;7.726;2023-02-18T12:24:27;9.93;;;7.20;;
58466;SDS011;44255;49.244;7.726;2023-02-18T12:30:18;10.02;;;7.18;;
58466;SDS011;44255;49.244;7.726;2023-02-18T12:41:45;10.10;;;6.95;;
58466;SDS011;44255;49.244;7.726;2023-02-18T12:44:37;10.77;;;7.55;;
58466;SDS011;44255;49.244;7.726;2023-02-18T12:52:30;8.38;;;6.80;;
58466;SDS011;44255;49.244;7.726;2023-02-18T13:09:23;9.55;;;6.18;;
58466;SDS011;44255;49.244;7.726;2023-02-18T13:14:52;8.65;;;5.65;;
58466;SDS011;44255;49.244;7.726;2023-02-18T13:17:24;7.57;;;5.43;;
58466;SDS011;44255;49.244;7.726;2023-02-18T13:20:01;10.77;;;6.30;;
58466;SDS011;44255;49.244;7.726;2023-02-18T13:22:37;8.52;;;5.80;;
58466;SDS011;44255;49.244;7.726;2023-02-18T13:25:03;8.55;;;6.35;;
58466;SDS011;44255;49.244;7.726;2023-02-18T13:30:27;8.68;;;5.53;;
58466;SDS011;44255;49.244;7.726;2023-02-18T13:39:08;9.85;;;5.78;;
58466;SDS011;44255;49.244;7.726;2023-02-18T13:41:38;8.60;;;5.95;;
58466;SDS011;44255;49.244;7.726;2023-02-18T13:46:54;9.15;;;5.97;;
58466;SDS011;44255;49.244;7.726;2023-02-18T13:49:25;8.68;;;6.25;;
58466;SDS011;44255;49.244;7.726;2023-02-18T13:51:56;10.15;;;6.03;;
58466;SDS011;44255;49.244;7.726;2023-02-18T13:54:24;8.93;;;6.00;;
58466;SDS011;44255;49.244;7.726;2023-02-18T13:57:03;8.45;;;6.07;;
58466;SDS011;44255;49.244;7.726;2023-02-18T14:04:47;7.85;;;5.13;;
58466;SDS011;44255;49.244;7.726;2023-02-18T14:17:48;8.57;;;5.50;;
58466;SDS011;44255;49.244;7.726;2023-02-18T14:25:53;7.75;;;5.85;;
58466;SDS011;44255;49.244;7.726;2023-02-18T14:31:03;9.07;;;6.05;;
58466;SDS011;44255;49.244;7.726;2023-02-18T14:36:41;8.88;;;6.15;;
58466;SDS011;44255;49.244;7.726;2023-02-18T14:39:27;7.97;;;6.28;;
58466;SDS011;44255;49.244;7.726;2023-02-18T14:47:34;10.40;;;6.55;;
58466;SDS011;44255;49.244;7.726;2023-02-18T14:50:12;9.40;;;6.57;;
58466;SDS011;44255;49.244;7.726;2023-02-18T14:52:41;10.20;;;7.22;;
58466;SDS011;44255;49.244;7.726;2023-02-18T14:55:23;12.45;;;8.27;;
58466;SDS011;44255;49.244;7.726;2023-02-18T15:00:22;11.80;;;7.18;;
58466;SDS011;44255;49.244;7.726;2023-02-18T15:02:50;9.98;;;7.25;;
58466;SDS011;44255;49.244;7.726;2023-02-18T15:05:19;11.63;;;6.95;;
58466;SDS011;44255;49.244;7.726;2023-02-18T15:08:03;9.70;;;7.03;;
58466;SDS011;44255;49.244;7.726;2023-02-18T15:10:40;10.43;;;6.93;;
58466;SDS011;44255;49.244;7.726;2023-02-18T15:13:18;10.68;;;7.60;;
58466;SDS011;44255;49.244;7.726;2023-02-18T15:15:45;12.93;;;7.80;;
58466;SDS011;44255;49.244;7.726;2023-02-18T15:20:46;14.25;;;7.25;;
58466;SDS011;44255;49.244;7.726;2023-02-18T15:23:12;10.27;;;6.47;;
58466;SDS011;44255;49.244;7.726;2023-02-18T15:25:41;10.98;;;7.18;;
58466;SDS011;44255;49.244;7.726;2023-02-18T15:28:27;13.10;;;7.43;;
58466;SDS011;44255;49.244;7.726;2023-02-18T15:30:58;11.25;;;7.32;;
58466;SDS011;44255;49.244;7.726;2023-02-18T15:33:25;11.38;;;7.72;;
58466;SDS011;44255;49.244;7.726;2023-02-18T15:35:51;15.00;;;7.32;;
58466;SDS011;44255;49.244;7.726;2023-02-18T15:38:24;10.80;;;7.43;;
58466;SDS011;44255;49.244;7.726;2023-02-18T15:40:51;16.27;;;10.63;;
58466;SDS011;44255;49.244;7.726;2023-02-18T15:43:19;11.98;;;7.13;;
58466;SDS011;44255;49.244;7.726;2023-02-18T15:45:47;13.02;;;8.30;;
58466;SDS011;44255;49.244;7.726;2023-02-18T15:48:23;13.15;;;8.18;;
58466;SDS011;44255;49.244;7.726;2023-02-18T15:50:55;11.30;;;7.60;;
58466;SDS011;44255;49.244;7.726;2023-02-18T15:53:21;10.32;;;7.55;;
58466;SDS011;44255;49.244;7.726;2023-02-18T15:55:49;15.77;;;9.80;;
58466;SDS011;44255;49.244;7.726;2023-02-18T15:58:35;11.75;;;7.68;;
58466;SDS011;44255;49.244;7.726;2023-02-18T16:01:02;10.60;;;7.75;;
58466;SDS011;44255;49.244;7.726;2023-02-18T16:03:44;11.70;;;8.40;;
58466;SDS011;44255;49.244;7.726;2023-02-18T16:09:01;13.13;;;7.43;;
58466;SDS011;44255;49.244;7.726;2023-02-18T16:11:37;12.02;;;8.02;;
58466;SDS011;44255;49.244;7.726;2023-02-18T16:14:05;10.93;;;7.30;;
58466;SDS011;44255;49.244;7.726;2023-02-18T16:16:33;12.27;;;7.77;;
58466;SDS011;44255;49.244;7.726;2023-02-18T16:19:03;11.23;;;6.97;;
58466;SDS011;44255;49.244;7.726;2023-02-18T16:21:36;9.82;;;6.90;;
58466;SDS011;44255;49.244;7.726;2023-02-18T16:24:20;11.85;;;7.97;;
58466;SDS011;44255;49.244;7.726;2023-02-18T16:26:49;11.00;;;7.00;;
58466;SDS011;44255;49.244;7.726;2023-02-18T16:29:21;12.40;;;8.10;;
58466;SDS011;44255;49.244;7.726;2023-02-18T16:31:49;14.13;;;8.50;;
58466;SDS011;44255;49.244;7.726;2023-02-18T16:34:14;12.13;;;7.20;;
58466;SDS011;44255;49.244;7.726;2023-02-18T16:36:40;11.83;;;7.70;;
58466;SDS011;44255;49.244;7.726;2023-02-18T16:39:26;13.25;;;8.02;;
58466;SDS011;44255;49.244;7.726;2023-02-18T16:41:53;12.95;;;7.75;;
58466;SDS011;44255;49.244;7.726;2023-02-18T16:44:19;17.57;;;8.10;;
58466;SDS011;44255;49.244;7.726;2023-02-18T16:46:44;12.63;;;7.20;;
58466;SDS011;44255;49.244;7.726;2023-02-18T16:49:10;13.17;;;7.70;;
58466;SDS011;44255;49.244;7.726;2023-02-18T16:51:38;12.00;;;7.65;;
58466;SDS011;44255;49.244;7.726;2023-02-18T16:54:03;11.52;;;7.00;;
58466;SDS011;44255;49.244;7.726;2023-02-18T16:56:29;11.87;;;7.07;;
58466;SDS011;44255;49.244;7.726;2023-02-18T16:58:57;15.20;;;7.93;;
58466;SDS011;44255;49.244;7.726;2023-02-18T17:01:36;13.10;;;7.72;;
58466;SDS011;44255;49.244;7.726;2023-02-18T17:04:05;13.57;;;6.97;;
58466;SDS011;44255;49.244;7.726;2023-02-18T17:06:34;11.90;;;7.20;;
58466;SDS011;44255;49.244;7.726;2023-02-18T17:08:59;14.50;;;7.72;;
58466;SDS011;44255;49.244;7.726;2023-02-18T17:11:27;14.40;;;8.10;;
58466;SDS011;44255;49.244;7.726;2023-02-18T17:13:54;13.55;;;8.18;;
58466;SDS011;44255;49.244;7.726;2023-02-18T17:16:23;10.23;;;7.30;;
58466;SDS011;44255;49.244;7.726;2023-02-18T17:18:49;13.18;;;7.88;;
58466;SDS011;44255;49.244;7.726;2023-02-18T17:21:15;12.97;;;7.87;;
58466;SDS011;44255;49.244;7.726;2023-02-18T17:23:43;12.38;;;7.88;;
58466;SDS011;44255;49.244;7.726;2023-02-18T17:26:10;10.57;;;7.95;;
58466;SDS011;44255;49.244;7.726;2023-02-18T17:28:39;10.73;;;7.25;;
58466;SDS011;44255;49.244;7.726;2023-02-18T17:31:04;12.50;;;7.83;;
58466;SDS011;44255;49.244;7.726;2023-02-18T17:33:30;13.43;;;8.27;;
58466;SDS011;44255;49.244;7.726;2023-02-18T17:35:55;14.67;;;9.17;;
58466;SDS011;44255;49.244;7.726;2023-02-18T17:38:20;16.67;;;9.27;;
58466;SDS011;44255;49.244;7.726;2023-02-18T17:40:46;13.80;;;8.53;;
58466;SDS011;44255;49.244;7.726;2023-02-18T17:43:14;13.45;;;8.35;;
58466;SDS011;44255;49.244;7.726;2023-02-18T17:45:42;16.75;;;9.27;;
58466;SDS011;44255;49.244;7.726;2023-02-18T17:48:12;16.98;;;9.70;;
58466;SDS011;44255;49.244;7.726;2023-02-18T17:50:37;11.23;;;7.57;;
58466;SDS011;44255;49.244;7.726;2023-02-18T17:53:02;18.17;;;10.53;;
58466;SDS011;44255;49.244;7.726;2023-02-18T17:55:32;11.98;;;8.35;;
58466;SDS011;44255;49.244;7.726;2023-02-18T17:57:59;11.50;;;7.78;;
58466;SDS011;44255;49.244;7.726;2023-02-18T18:00:27;13.07;;;8.75;;
58466;SDS011;44255;49.244;7.726;2023-02-18T18:02:54;13.45;;;7.90;;
58466;SDS011;44255;49.244;7.726;2023-02-18T18:07:47;11.07;;;7.80;;
58466;SDS011;44255;49.244;7.726;2023-02-18T18:10:14;16.42;;;9.35;;
58466;SDS011;44255;49.244;7.726;2023-02-18T18:12:39;16.58;;;9.80;;
58466;SDS011;44255;49.244;7.726;2023-02-18T18:15:12;10.55;;;6.93;;
58466;SDS011;44255;49.244;7.726;2023-02-18T18:17:45;17.77;;;9.70;;
58466;SDS011;44255;49.244;7.726;2023-02-18T18:20:11;10.90;;;7.70;;
58466;SDS011;44255;49.244;7.726;2023-02-18T18:22:36;13.00;;;8.02;;
58466;SDS011;44255;49.244;7.726;2023-02-18T18:25:01;16.33;;;9.13;;
58466;SDS011;44255;49.244;7.726;2023-02-18T18:27:28;10.00;;;6.88;;
58466;SDS011;44255;49.244;7.726;2023-02-18T18:29:54;12.95;;;8.38;;
58466;SDS011;44255;49.244;7.726;2023-02-18T18:32:19;12.13;;;7.93;;
58466;SDS011;44255;49.244;7.726;2023-02-18T18:34:46;12.10;;;7.25;;
58466;SDS011;44255;49.244;7.726;2023-02-18T18:37:11;10.70;;;6.47;;
58466;SDS011;44255;49.244;7.726;2023-02-18T18:39:37;14.87;;;8.73;;
58466;SDS011;44255;49.244;7.726;2023-02-18T18:42:02;11.90;;;7.73;;
58466;SDS011;44255;49.244;7.726;2023-02-18T18:44:27;10.70;;;7.07;;
58466;SDS011;44255;49.244;7.726;2023-02-18T18:46:53;10.70;;;6.33;;
58466;SDS011;44255;49.244;7.726;2023-02-18T18:49:18;10.97;;;7.43;;
58466;SDS011;44255;49.244;7.726;2023-02-18T18:51:43;10.53;;;6.93;;
58466;SDS011;44255;49.244;7.726;2023-02-18T18:54:10;10.77;;;6.43;;
58466;SDS011;44255;49.244;7.726;2023-02-18T18:56:35;8.82;;;6.38;;
58466;SDS011;44255;49.244;7.726;2023-02-18T18:59:02;9.00;;;6.20;;
58466;SDS011;44255;49.244;7.726;2023-02-18T19:01:28;8.88;;;5.78;;
58466;SDS011;44255;49.244;7.726;2023-02-18T19:03:53;9.65;;;6.28;;
58466;SDS011;44255;49.244;7.726;2023-02-18T19:06:19;9.60;;;6.47;;
58466;SDS011;44255;49.244;7.726;2023-02-18T19:08:45;7.95;;;5.93;;
58466;SDS011;44255;49.244;7.726;2023-02-18T19:11:12;9.93;;;7.15;;
58466;SDS011;44255;49.244;7.726;2023-02-18T19:13:38;9.75;;;6.35;;
58466;SDS011;44255;49.244;7.726;2023-02-18T19:16:20;17.50;;;8.43;;
58466;SDS011;44255;49.244;7.726;2023-02-18T19:18:57;13.30;;;8.50;;
58466;SDS011;44255;49.244;7.726;2023-02-18T19:21:23;10.38;;;6.88;;
58466;SDS011;44255;49.244;7.726;2023-02-18T19:23:48;9.83;;;6.77;;
58466;SDS011;44255;49.244;7.726;2023-02-18T19:26:14;8.73;;;5.70;;
58466;SDS011;44255;49.244;7.726;2023-02-18T19:28:40;10.52;;;7.28;;
58466;SDS011;44255;49.244;7.726;2023-02-18T19:31:06;9.70;;;7.63;;
58466;SDS011;44255;49.244;7.726;2023-02-18T19:33:33;8.93;;;6.32;;
58466;SDS011;44255;49.244;7.726;2023-02-18T19:35:58;8.85;;;6.35;;
58466;SDS011;44255;49.244;7.726;2023-02-18T19:38:23;8.17;;;5.60;;
58466;SDS011;44255;49.244;7.726;2023-02-18T19:40:49;8.50;;;6.43;;
58466;SDS011;44255;49.244;7.726;2023-02-18T19:43:14;9.57;;;6.63;;
58466;SDS011;44255;49.244;7.726;2023-02-18T19:45:44;9.67;;;6.63;;
58466;SDS011;44255;49.244;7.726;2023-02-18T19:48:11;11.60;;;6.93;;
58466;SDS011;44255;49.244;7.726;2023-02-18T19:50:38;9.70;;;7.15;;
58466;SDS011;44255;49.244;7.726;2023-02-18T19:53:05;10.00;;;7.15;;
58466;SDS011;44255;49.244;7.726;2023-02-18T19:55:31;14.32;;;8.75;;
58466;SDS011;44255;49.244;7.726;2023-02-18T19:57:56;14.13;;;8.20;;
58466;SDS011;44255;49.244;7.726;2023-02-18T20:00:21;25.00;;;11.87;;
58466;SDS011;44255;49.244;7.726;2023-02-18T20:02:47;12.77;;;7.17;;
58466;SDS011;44255;49.244;7.726;2023-02-18T20:05:12;14.75;;;7.88;;
58466;SDS011;44255;49.244;7.726;2023-02-18T20:07:38;20.77;;;9.13;;
58466;SDS011;44255;49.244;7.726;2023-02-18T20:10:05;14.52;;;8.15;;
58466;SDS011;44255;49.244;7.726;2023-02-18T20:14:57;11.05;;;6.72;;
58466;SDS011;44255;49.244;7.726;2023-02-18T20:17:22;9.93;;;6.90;;
58466;SDS011;44255;49.244;7.726;2023-02-18T20:19:48;10.52;;;7.20;;
58466;SDS011;44255;49.244;7.726;2023-02-18T20:22:13;14.07;;;8.73;;
58466;SDS011;44255;49.244;7.726;2023-02-18T20:24:38;15.27;;;8.90;;
58466;SDS011;44255;49.244;7.726;2023-02-18T20:27:04;10.57;;;7.10;;
58466;SDS011;44255;49.244;7.726;2023-02-18T20:29:30;13.32;;;7.57;;
58466;SDS011;44255;49.244;7.726;2023-02-18T20:31:57;12.25;;;7.78;;
58466;SDS011;44255;49.244;7.726;2023-02-18T20:34:23;11.02;;;7.63;;
58466;SDS011;44255;49.244;7.726;2023-02-18T20:36:48;11.23;;;8.40;;
58466;SDS011;44255;49.244;7.726;2023-02-18T20:39:14;13.55;;;8.07;;
58466;SDS011;44255;49.244;7.726;2023-02-18T20:41:41;10.98;;;7.53;;
58466;SDS011;44255;49.244;7.726;2023-02-18T20:44:06;10.85;;;7.70;;
58466;SDS011;44255;49.244;7.726;2023-02-18T20:46:35;11.07;;;8.02;;
58466;SDS011;44255;49.244;7.726;2023-02-18T20:49:11;10.65;;;7.35;;
58466;SDS011;44255;49.244;7.726;2023-02-18T20:51:39;11.88;;;7.78;;
58466;SDS011;44255;49.244;7.726;2023-02-18T20:54:05;10.75;;;7.72;;
58466;SDS011;44255;49.244;7.726;2023-02-18T20:56:34;10.80;;;7.40;;
58466;SDS011;44255;49.244;7.726;2023-02-18T20:59:00;12.27;;;6.90;;
58466;SDS011;44255;49.244;7.726;2023-02-18T21:01:25;10.02;;;6.72;;
58466;SDS011;44255;49.244;7.726;2023-02-18T21:03:51;9.38;;;7.20;;
58466;SDS011;44255;49.244;7.726;2023-02-18T21:06:17;9.48;;;6.95;;
58466;SDS011;44255;49.244;7.726;2023-02-18T21:08:45;13.00;;;7.25;;
58466;SDS011;44255;49.244;7.726;2023-02-18T21:11:13;10.48;;;7.32;;